Le Ponant — FGZZ — position and weather

sailwx.info

Track history (hours):
 
Tides and Currents Weather Stations Pressure Air Temp Water Temp Dewpoint Dewpoint Depression Visibility Wind Speed Wind Dir Waves Ship Positions

Le Ponant

Operator: Compangy des Iles du Ponant

Last reported at 2014-Dec-31 02:04 UTC. Time now 2015-Mar-01 16:34 UTC.
Position N 18°22' W 064°24'.
Warning: this ship's position is months out of date.

Length 84 m; draft 4.2 m.

Type: Passenger vessel. MMSI: 227186000.

Date/timePositionNaut miles runAvg speedWind from/ knotsBaromVisibWave heightAir tempDewpointWater temp
2014-Dec-31 02:04N 18°22' W 064°24'6 9.3
2014-Dec-31 01:25N 18°24' W 064°30'6 4.9
2014-Dec-31 00:10N 18°25' W 064°36'7 0.5
2014-Dec-30 10:18N 18°26' W 064°29'8 7.8
2014-Dec-30 09:20N 18°21' W 064°23'169 8.7
2014-Dec-29 14:03N 17°00' W 061°47'0 0.0
2014-Dec-29 13:33N 17°00' W 061°47'0 0.0
2014-Dec-29 12:33N 17°00' W 061°47'0 0.0
2014-Dec-29 11:33N 17°00' W 061°47'2 1.9
2014-Dec-29 10:33N 16°58' W 061°47'1110.6
2014-Dec-29 09:34N 16°48' W 061°48'10 9.5
2014-Dec-29 08:33N 16°39' W 061°50'14 9.4
2014-Dec-29 07:04N 16°25' W 061°52'23 8.5
2014-Dec-29 04:21N 16°02' W 061°47'  
Track history (hours):
 
Tides and Currents Weather Stations Pressure Air Temp Water Temp Dewpoint Dewpoint Depression Visibility Wind Speed Wind Dir Waves Ship Positions

Le Ponant

Operator: Compangy des Iles du Ponant

Last reported at 2014-Dec-31 02:04 UTC. Time now 2015-Mar-01 16:34 UTC.
Position N 18°22' W 064°24'.
Warning: this ship's position is months out of date.

Length 84 m; draft 4.2 m.

Type: Passenger vessel. MMSI: 227186000.

Date/timePositionNaut miles runAvg speedWind from/ knotsBaromVisibWave heightAir tempDewpointWater temp
2014-Dec-31 02:04N 18°22' W 064°24'6 9.3
2014-Dec-31 01:25N 18°24' W 064°30'6 4.9
2014-Dec-31 00:10N 18°25' W 064°36'7 0.5
2014-Dec-30 10:18N 18°26' W 064°29'8 7.8
2014-Dec-30 09:20N 18°21' W 064°23'169 8.7
2014-Dec-29 14:03N 17°00' W 061°47'0 0.0
2014-Dec-29 13:33N 17°00' W 061°47'0 0.0
2014-Dec-29 12:33N 17°00' W 061°47'0 0.0
2014-Dec-29 11:33N 17°00' W 061°47'2 1.9
2014-Dec-29 10:33N 16°58' W 061°47'1110.6
2014-Dec-29 09:34N 16°48' W 061°48'10 9.5
2014-Dec-29 08:33N 16°39' W 061°50'14 9.4
2014-Dec-29 07:04N 16°25' W 061°52'23 8.5
2014-Dec-29 04:21N 16°02' W 061°47'  

Dump ship's entire track history